PWSweather.com
Personal Weather Stations
Station Observations

SasamonSasamonES 09123

Lat: 42.4180252, Lon: -4.0413679

Elevation: 2706.692

Station Type: PCE-FWS 20

http://www.mipaginapersonal.movistar.es/web3/meteosasamon/index.htm

High Low Average
Temperature 72.9°F22.7°C 37.8°F3.2°C 61.9°F16.6°C
Dew Point 41.1°F5.1°C 24.6°F-4.1°C 30.2°F-1.0°C
Winds 7.7 mph 12.4 kmh Calm Calm 3.0 mph SSE4.8 kmh SSE
Wind Gusts 16.8 mph27.0 kmh 0.7 mph1.1 kmh 8.0 mph12.9 kmh
Humidity 74% 20% 36%
Pressure 30.05 in1017.6 mb 29.97 in1014.9 mb -
Precipitation 0.00 in0.0 mm - -
Hour Temp Dew Point Humidity Winds Wind Gusts Pressure Precip Precip Rate Daily Precip Total
07:43 AM 37.8°F3.2°C 29.5°F-1.4°C 72% Calm Calm 1.6 mph2.6 kmh 30.05 in1017.6 mb 0.00 in0.0 mm 0.00 in/hr0.0 mm/hr 0.00 in0.0 mm
07:54 AM 38.3°F3.5°C 30.3°F-0.9°C 73% 0.4 mph N0.6 kmh N 1.6 mph2.6 kmh 30.05 in1017.6 mb 0.00 in0.0 mm 0.00 in/hr0.0 mm/hr 0.00 in0.0 mm
08:05 AM 38.8°F3.8°C 31.2°F-0.4°C 74% 0.7 mph N1.1 kmh N 3.1 mph5.0 kmh 30.04 in1017.3 mb 0.00 in0.0 mm 0.00 in/hr0.0 mm/hr 0.00 in0.0 mm
08:16 AM 40.3°F4.6°C 31.9°F-0.1°C 72% 1.0 mph N1.6 kmh N 3.8 mph6.1 kmh 30.04 in1017.3 mb 0.00 in0.0 mm 0.00 in/hr0.0 mm/hr 0.00 in0.0 mm
08:27 AM 41.0°F5.0°C 32.6°F0.3°C 72% 0.8 mph N1.3 kmh N 2.2 mph3.5 kmh 30.04 in1017.3 mb 0.00 in0.0 mm 0.00 in/hr0.0 mm/hr 0.00 in0.0 mm
08:38 AM 42.1°F5.6°C 34.0°F1.1°C 73% 0.6 mph NW1.0 kmh NW 3.1 mph5.0 kmh 30.04 in1017.3 mb 0.00 in0.0 mm 0.00 in/hr0.0 mm/hr 0.00 in0.0 mm
08:49 AM 44.4°F6.9°C 34.4°F1.3°C 68% Calm Calm 1.6 mph2.6 kmh 30.05 in1017.6 mb 0.00 in0.0 mm 0.00 in/hr0.0 mm/hr 0.00 in0.0 mm
09:00 AM 46.9°F8.3°C 34.7°F1.5°C 63% Calm Calm 1.6 mph2.6 kmh 30.05 in1017.6 mb 0.00 in0.0 mm 0.00 in/hr0.0 mm/hr 0.00 in0.0 mm
09:11 AM 47.8°F8.8°C 35.6°F2.0°C 63% 0.2 mph ESE0.3 kmh ESE 2.2 mph3.5 kmh 30.05 in1017.6 mb 0.00 in0.0 mm 0.00 in/hr0.0 mm/hr 0.00 in0.0 mm
09:22 AM 47.7°F8.7°C 37.8°F3.2°C 69% 1.0 mph NNE1.6 kmh NNE 3.1 mph5.0 kmh 30.05 in1017.6 mb 0.00 in0.0 mm 0.00 in/hr0.0 mm/hr 0.00 in0.0 mm
09:33 AM 48.7°F9.3°C 37.7°F3.2°C 66% 0.5 mph NNW0.8 kmh NNW 2.2 mph3.5 kmh 30.05 in1017.6 mb 0.00 in0.0 mm 0.00 in/hr0.0 mm/hr 0.00 in0.0 mm
09:44 AM 50.9°F10.5°C 38.9°F3.8°C 64% 0.5 mph N0.8 kmh N 2.2 mph3.5 kmh 30.05 in1017.6 mb 0.00 in0.0 mm 0.00 in/hr0.0 mm/hr 0.00 in0.0 mm
09:55 AM 53.4°F11.9°C 39.0°F3.9°C 59% 0.2 mph NE0.3 kmh NE 1.6 mph2.6 kmh 30.05 in1017.6 mb 0.00 in0.0 mm 0.00 in/hr0.0 mm/hr 0.00 in0.0 mm
10:06 AM 54.7°F12.6°C 39.7°F4.3°C 58% Calm Calm 0.7 mph1.1 kmh 30.05 in1017.6 mb 0.00 in0.0 mm 0.00 in/hr0.0 mm/hr 0.00 in0.0 mm
10:17 AM 57.0°F13.9°C 40.4°F4.7°C 55% 0.4 mph N0.6 kmh N 2.2 mph3.5 kmh 30.05 in1017.6 mb 0.00 in0.0 mm 0.00 in/hr0.0 mm/hr 0.00 in0.0 mm
10:28 AM 57.2°F14.0°C 41.1°F5.1°C 56% 1.2 mph NNE1.9 kmh NNE 3.8 mph6.1 kmh 30.05 in1017.6 mb 0.00 in0.0 mm 0.00 in/hr0.0 mm/hr 0.00 in0.0 mm
10:39 AM 59.0°F15.0°C 40.7°F4.8°C 52% 0.8 mph E1.3 kmh E 4.5 mph7.2 kmh 30.05 in1017.6 mb 0.00 in0.0 mm 0.00 in/hr0.0 mm/hr 0.00 in0.0 mm
10:50 AM 61.3°F16.3°C 40.0°F4.4°C 47% 0.7 mph E1.1 kmh E 3.1 mph5.0 kmh 30.05 in1017.6 mb 0.00 in0.0 mm 0.00 in/hr0.0 mm/hr 0.00 in0.0 mm
11:01 AM 63.1°F17.3°C 37.0°F2.8°C 40% 0.8 mph ESE1.3 kmh ESE 4.5 mph7.2 kmh 30.05 in1017.6 mb 0.00 in0.0 mm 0.00 in/hr0.0 mm/hr 0.00 in0.0 mm
11:12 AM 64.2°F17.9°C 37.2°F2.9°C 39% 0.8 mph S1.3 kmh S 6.0 mph9.7 kmh 30.05 in1017.6 mb 0.00 in0.0 mm 0.00 in/hr0.0 mm/hr 0.00 in0.0 mm
11:23 AM 64.8°F18.2°C 33.8°F1.0°C 34% 2.2 mph SSE3.5 kmh SSE 8.3 mph13.4 kmh 30.05 in1017.6 mb 0.00 in0.0 mm 0.00 in/hr0.0 mm/hr 0.00 in0.0 mm
11:34 AM 64.6°F18.1°C 33.6°F0.9°C 34% 3.6 mph S5.8 kmh S 8.3 mph13.4 kmh 30.04 in1017.3 mb 0.00 in0.0 mm 0.00 in/hr0.0 mm/hr 0.00 in0.0 mm
11:45 AM 64.8°F18.2°C 33.8°F1.0°C 34% 4.0 mph S6.4 kmh S 9.2 mph14.8 kmh 30.04 in1017.3 mb 0.00 in0.0 mm 0.00 in/hr0.0 mm/hr 0.00 in0.0 mm
11:56 AM 65.8°F18.8°C 32.9°F0.5°C 32% 4.2 mph S6.8 kmh S 8.3 mph13.4 kmh 30.04 in1017.3 mb 0.00 in0.0 mm 0.00 in/hr0.0 mm/hr 0.00 in0.0 mm
12:07 PM 66.2°F19.0°C 32.3°F0.2°C 31% 4.6 mph SW7.4 kmh SW 8.3 mph13.4 kmh 30.04 in1017.3 mb 0.00 in0.0 mm 0.00 in/hr0.0 mm/hr 0.00 in0.0 mm
12:18 PM 67.5°F19.7°C 29.4°F-1.4°C 27% 4.1 mph S6.6 kmh S 10.7 mph17.2 kmh 30.04 in1017.3 mb 0.00 in0.0 mm 0.00 in/hr0.0 mm/hr 0.00 in0.0 mm
12:29 PM 68.2°F20.1°C 31.0°F-0.6°C 28% 4.0 mph SSW6.4 kmh SSW 11.4 mph18.3 kmh 30.04 in1017.3 mb 0.00 in0.0 mm 0.00 in/hr0.0 mm/hr 0.00 in0.0 mm
12:40 PM 68.4°F20.2°C 30.1°F-1.1°C 27% 4.6 mph S7.4 kmh S 9.8 mph15.8 kmh 30.04 in1017.3 mb 0.00 in0.0 mm 0.00 in/hr0.0 mm/hr 0.00 in0.0 mm
12:51 PM 69.8°F21.0°C 29.1°F-1.6°C 25% 2.8 mph S4.5 kmh S 7.6 mph12.2 kmh 30.04 in1017.3 mb 0.00 in0.0 mm 0.00 in/hr0.0 mm/hr 0.00 in0.0 mm
01:02 PM 69.4°F20.8°C 29.9°F-1.2°C 26% 3.9 mph S6.3 kmh S 9.2 mph14.8 kmh 30.03 in1016.9 mb 0.00 in0.0 mm 0.00 in/hr0.0 mm/hr 0.00 in0.0 mm
01:13 PM 69.8°F21.0°C 29.1°F-1.6°C 25% 3.9 mph SSW6.3 kmh SSW 9.2 mph14.8 kmh 30.03 in1016.9 mb 0.00 in0.0 mm 0.00 in/hr0.0 mm/hr 0.00 in0.0 mm
01:24 PM 70.3°F21.3°C 28.3°F-2.1°C 24% 2.8 mph SSW4.5 kmh SSW 7.6 mph12.2 kmh 30.03 in1016.9 mb 0.00 in0.0 mm 0.00 in/hr0.0 mm/hr 0.00 in0.0 mm
01:35 PM 71.1°F21.7°C 27.6°F-2.4°C 23% 2.8 mph S4.5 kmh S 9.2 mph14.8 kmh 30.03 in1016.9 mb 0.00 in0.0 mm 0.00 in/hr0.0 mm/hr 0.00 in0.0 mm
01:46 PM 71.2°F21.8°C 27.8°F-2.3°C 23% 2.8 mph S4.5 kmh S 7.6 mph12.2 kmh 30.03 in1016.9 mb 0.00 in0.0 mm 0.00 in/hr0.0 mm/hr 0.00 in0.0 mm
01:57 PM 71.8°F22.1°C 28.2°F-2.1°C 23% 2.9 mph SW4.7 kmh SW 8.3 mph13.4 kmh 30.02 in1016.6 mb 0.00 in0.0 mm 0.00 in/hr0.0 mm/hr 0.00 in0.0 mm
02:08 PM 71.8°F22.1°C 25.5°F-3.6°C 21% 3.9 mph S6.3 kmh S 8.3 mph13.4 kmh 30.02 in1016.6 mb 0.00 in0.0 mm 0.00 in/hr0.0 mm/hr 0.00 in0.0 mm
02:19 PM 71.6°F22.0°C 28.1°F-2.2°C 23% 4.7 mph S7.6 kmh S 8.3 mph13.4 kmh 30.01 in1016.3 mb 0.00 in0.0 mm 0.00 in/hr0.0 mm/hr 0.00 in0.0 mm
02:30 PM 71.8°F22.1°C 25.5°F-3.6°C 21% 4.1 mph SW6.6 kmh SW 10.7 mph17.2 kmh 30.01 in1016.3 mb 0.00 in0.0 mm 0.00 in/hr0.0 mm/hr 0.00 in0.0 mm
02:41 PM 71.8°F22.1°C 26.9°F-2.8°C 22% 4.3 mph SW6.9 kmh SW 12.1 mph19.5 kmh 30.00 in1015.9 mb 0.00 in0.0 mm 0.00 in/hr0.0 mm/hr 0.00 in0.0 mm
02:52 PM 71.6°F22.0°C 25.4°F-3.7°C 21% 5.7 mph W9.2 kmh W 12.1 mph19.5 kmh 30.00 in1015.9 mb 0.00 in0.0 mm 0.00 in/hr0.0 mm/hr 0.00 in0.0 mm
03:03 PM 71.6°F22.0°C 26.7°F-2.9°C 22% 6.3 mph WSW10.1 kmh WSW 13.6 mph21.9 kmh 30.01 in1016.3 mb 0.00 in0.0 mm 0.00 in/hr0.0 mm/hr 0.00 in0.0 mm
03:14 PM 72.0°F22.2°C 25.6°F-3.6°C 21% 5.9 mph SW9.5 kmh SW 11.4 mph18.3 kmh 30.00 in1015.9 mb 0.00 in0.0 mm 0.00 in/hr0.0 mm/hr 0.00 in0.0 mm
03:25 PM 71.6°F22.0°C 25.4°F-3.7°C 21% 5.9 mph S9.5 kmh S 11.4 mph18.3 kmh 30.00 in1015.9 mb 0.00 in0.0 mm 0.00 in/hr0.0 mm/hr 0.00 in0.0 mm
03:36 PM 72.5°F22.5°C 26.1°F-3.3°C 21% 3.4 mph S5.5 kmh S 9.2 mph14.8 kmh 29.99 in1015.6 mb 0.00 in0.0 mm 0.00 in/hr0.0 mm/hr 0.00 in0.0 mm
03:47 PM 72.3°F22.4°C 25.9°F-3.4°C 21% 5.9 mph WSW9.5 kmh WSW 10.7 mph17.2 kmh 29.99 in1015.6 mb 0.00 in0.0 mm 0.00 in/hr0.0 mm/hr 0.00 in0.0 mm
03:58 PM 72.0°F22.2°C 25.6°F-3.6°C 21% 5.6 mph SW9.0 kmh SW 16.8 mph27.0 kmh 29.99 in1015.6 mb 0.00 in0.0 mm 0.00 in/hr0.0 mm/hr 0.00 in0.0 mm
04:09 PM 72.3°F22.4°C 27.3°F-2.6°C 22% 4.6 mph SW7.4 kmh SW 8.3 mph13.4 kmh 29.99 in1015.6 mb 0.00 in0.0 mm 0.00 in/hr0.0 mm/hr 0.00 in0.0 mm
04:20 PM 72.5°F22.5°C 26.1°F-3.3°C 21% 2.2 mph WNW3.5 kmh WNW 8.3 mph13.4 kmh 29.99 in1015.6 mb 0.00 in0.0 mm 0.00 in/hr0.0 mm/hr 0.00 in0.0 mm
04:31 PM 72.5°F22.5°C 26.1°F-3.3°C 21% 3.5 mph SW5.6 kmh SW 8.3 mph13.4 kmh 29.99 in1015.6 mb 0.00 in0.0 mm 0.00 in/hr0.0 mm/hr 0.00 in0.0 mm
04:42 PM 72.5°F22.5°C 24.6°F-4.1°C 20% 5.4 mph SW8.7 kmh SW 12.1 mph19.5 kmh 29.98 in1015.2 mb 0.00 in0.0 mm 0.00 in/hr0.0 mm/hr 0.00 in0.0 mm
04:53 PM 72.1°F22.3°C 25.8°F-3.4°C 21% 5.5 mph WSW8.9 kmh WSW 13.6 mph21.9 kmh 29.98 in1015.2 mb 0.00 in0.0 mm 0.00 in/hr0.0 mm/hr 0.00 in0.0 mm
05:04 PM 72.9°F22.7°C 24.9°F-3.9°C 20% 3.5 mph SW5.6 kmh SW 8.3 mph13.4 kmh 29.98 in1015.2 mb 0.00 in0.0 mm 0.00 in/hr0.0 mm/hr 0.00 in0.0 mm
05:15 PM 72.9°F22.7°C 24.9°F-3.9°C 20% 4.4 mph WSW7.1 kmh WSW 9.8 mph15.8 kmh 29.98 in1015.2 mb 0.00 in0.0 mm 0.00 in/hr0.0 mm/hr 0.00 in0.0 mm
05:26 PM 72.7°F22.6°C 24.8°F-4.0°C 20% 3.9 mph SW6.3 kmh SW 10.7 mph17.2 kmh 29.98 in1015.2 mb 0.00 in0.0 mm 0.00 in/hr0.0 mm/hr 0.00 in0.0 mm
05:37 PM 72.7°F22.6°C 24.8°F-4.0°C 20% 3.1 mph SW5.0 kmh SW 8.3 mph13.4 kmh 29.98 in1015.2 mb 0.00 in0.0 mm 0.00 in/hr0.0 mm/hr 0.00 in0.0 mm
05:48 PM 72.5°F22.5°C 24.6°F-4.1°C 20% 3.2 mph W5.1 kmh W 8.3 mph13.4 kmh 29.97 in1014.9 mb 0.00 in0.0 mm 0.00 in/hr0.0 mm/hr 0.00 in0.0 mm
05:59 PM 71.6°F22.0°C 25.4°F-3.7°C 21% 1.9 mph W3.1 kmh W 5.4 mph8.7 kmh 29.97 in1014.9 mb 0.00 in0.0 mm 0.00 in/hr0.0 mm/hr 0.00 in0.0 mm
06:10 PM 71.1°F21.7°C 26.3°F-3.2°C 22% 1.8 mph W2.9 kmh W 6.0 mph9.7 kmh 29.98 in1015.2 mb 0.00 in0.0 mm 0.00 in/hr0.0 mm/hr 0.00 in0.0 mm
06:21 PM 69.8°F21.0°C 26.6°F-3.0°C 23% 2.4 mph WNW3.9 kmh WNW 6.9 mph11.1 kmh 29.98 in1015.2 mb 0.00 in0.0 mm 0.00 in/hr0.0 mm/hr 0.00 in0.0 mm
06:32 PM 68.7°F20.4°C 27.0°F-2.8°C 24% 1.4 mph NW2.3 kmh NW 4.5 mph7.2 kmh 29.98 in1015.2 mb 0.00 in0.0 mm 0.00 in/hr0.0 mm/hr 0.00 in0.0 mm
06:43 PM 68.0°F20.0°C 27.6°F-2.4°C 25% 0.7 mph NNW1.1 kmh NNW 3.1 mph5.0 kmh 29.98 in1015.2 mb 0.00 in0.0 mm 0.00 in/hr0.0 mm/hr 0.00 in0.0 mm
06:54 PM 67.5°F19.7°C 27.1°F-2.7°C 25% 1.1 mph NNW1.8 kmh NNW 3.8 mph6.1 kmh 29.98 in1015.2 mb 0.00 in0.0 mm 0.00 in/hr0.0 mm/hr 0.00 in0.0 mm
07:05 PM 66.7°F19.3°C 29.8°F-1.2°C 28% 2.5 mph N4.0 kmh N 4.5 mph7.2 kmh 29.98 in1015.2 mb 0.00 in0.0 mm 0.00 in/hr0.0 mm/hr 0.00 in0.0 mm
07:16 PM 64.4°F18.0°C 28.9°F-1.7°C 29% 1.9 mph NE3.1 kmh NE 4.5 mph7.2 kmh 29.98 in1015.2 mb 0.00 in0.0 mm 0.00 in/hr0.0 mm/hr 0.00 in0.0 mm
07:27 PM 63.5°F17.5°C 28.1°F-2.2°C 29% Calm Calm 1.6 mph2.6 kmh 29.98 in1015.2 mb 0.00 in0.0 mm 0.00 in/hr0.0 mm/hr 0.00 in0.0 mm
07:38 PM 62.4°F16.9°C 27.2°F-2.7°C 29% 0.5 mph ENE0.8 kmh ENE 2.2 mph3.5 kmh 29.98 in1015.2 mb 0.00 in0.0 mm 0.00 in/hr0.0 mm/hr 0.00 in0.0 mm
07:49 PM 61.0°F16.1°C 27.0°F-2.8°C 30% 1.0 mph NE1.6 kmh NE 4.5 mph7.2 kmh 29.98 in1015.2 mb 0.00 in0.0 mm 0.00 in/hr0.0 mm/hr 0.00 in0.0 mm
08:00 PM 59.5°F15.3°C 29.3°F-1.5°C 34% 2.5 mph E4.0 kmh E 6.9 mph11.1 kmh 29.98 in1015.2 mb 0.00 in0.0 mm 0.00 in/hr0.0 mm/hr 0.00 in0.0 mm
08:11 PM 58.8°F14.9°C 30.2°F-1.0°C 36% 3.6 mph SE5.8 kmh SE 8.3 mph13.4 kmh 29.98 in1015.2 mb 0.00 in0.0 mm 0.00 in/hr0.0 mm/hr 0.00 in0.0 mm
08:22 PM 58.5°F14.7°C 30.7°F-0.7°C 37% 5.1 mph E8.2 kmh E 9.8 mph15.8 kmh 29.99 in1015.6 mb 0.00 in0.0 mm 0.00 in/hr0.0 mm/hr 0.00 in0.0 mm
08:33 PM 58.3°F14.6°C 31.3°F-0.4°C 38% 5.2 mph E8.4 kmh E 9.8 mph15.8 kmh 29.98 in1015.2 mb 0.00 in0.0 mm 0.00 in/hr0.0 mm/hr 0.00 in0.0 mm
08:44 PM 57.6°F14.2°C 31.4°F-0.3°C 39% 5.8 mph E9.3 kmh E 13.0 mph20.9 kmh 29.98 in1015.2 mb 0.00 in0.0 mm 0.00 in/hr0.0 mm/hr 0.00 in0.0 mm
08:55 PM 57.2°F14.0°C 31.8°F-0.1°C 40% 5.7 mph E9.2 kmh E 10.7 mph17.2 kmh 29.98 in1015.2 mb 0.00 in0.0 mm 0.00 in/hr0.0 mm/hr 0.00 in0.0 mm
09:06 PM 57.2°F14.0°C 31.8°F-0.1°C 40% 5.4 mph E8.7 kmh E 10.7 mph17.2 kmh 29.98 in1015.2 mb 0.00 in0.0 mm 0.00 in/hr0.0 mm/hr 0.00 in0.0 mm
09:17 PM 56.5°F13.6°C 31.8°F-0.1°C 41% 5.9 mph E9.5 kmh E 9.8 mph15.8 kmh 29.99 in1015.6 mb 0.00 in0.0 mm 0.00 in/hr0.0 mm/hr 0.00 in0.0 mm
09:28 PM 56.1°F13.4°C 30.8°F-0.7°C 40% 6.9 mph E11.1 kmh E 12.1 mph19.5 kmh 29.99 in1015.6 mb 0.00 in0.0 mm 0.00 in/hr0.0 mm/hr 0.00 in0.0 mm
09:39 PM 56.3°F13.5°C 31.0°F-0.6°C 40% 7.4 mph E11.9 kmh E 13.0 mph20.9 kmh 29.99 in1015.6 mb 0.00 in0.0 mm 0.00 in/hr0.0 mm/hr 0.00 in0.0 mm
09:50 PM 56.7°F13.7°C 30.6°F-0.8°C 39% 7.7 mph E12.4 kmh E 13.0 mph20.9 kmh 29.99 in1015.6 mb 0.00 in0.0 mm 0.00 in/hr0.0 mm/hr 0.00 in0.0 mm
10:01 PM 56.3°F13.5°C 31.0°F-0.6°C 40% 6.7 mph E10.8 kmh E 13.0 mph20.9 kmh 29.99 in1015.6 mb 0.00 in0.0 mm 0.00 in/hr0.0 mm/hr 0.00 in0.0 mm
10:12 PM 55.4°F13.0°C 30.9°F-0.6°C 41% 6.0 mph SE9.7 kmh SE 11.4 mph18.3 kmh 29.99 in1015.6 mb 0.00 in0.0 mm 0.00 in/hr0.0 mm/hr 0.00 in0.0 mm
10:23 PM 55.6°F13.1°C 30.3°F-0.9°C 40% 7.4 mph E11.9 kmh E 13.6 mph21.9 kmh 29.99 in1015.6 mb 0.00 in0.0 mm 0.00 in/hr0.0 mm/hr 0.00 in0.0 mm
10:34 PM 55.2°F12.9°C 30.0°F-1.1°C 40% 5.2 mph E8.4 kmh E 11.4 mph18.3 kmh 29.99 in1015.6 mb 0.00 in0.0 mm 0.00 in/hr0.0 mm/hr 0.00 in0.0 mm
10:45 PM 55.6°F13.1°C 29.6°F-1.3°C 39% 4.8 mph ESE7.7 kmh ESE 11.4 mph18.3 kmh 29.99 in1015.6 mb 0.00 in0.0 mm 0.00 in/hr0.0 mm/hr 0.00 in0.0 mm
10:56 PM 54.7°F12.6°C 29.5°F-1.4°C 40% 5.7 mph E9.2 kmh E 10.7 mph17.2 kmh 29.99 in1015.6 mb 0.00 in0.0 mm 0.00 in/hr0.0 mm/hr 0.00 in0.0 mm
11:07 PM 54.9°F12.7°C 29.7°F-1.3°C 40% 6.1 mph E9.8 kmh E 11.4 mph18.3 kmh 29.99 in1015.6 mb 0.00 in0.0 mm 0.00 in/hr0.0 mm/hr 0.00 in0.0 mm
11:18 PM 54.9°F12.7°C 29.0°F-1.7°C 39% 4.8 mph E7.7 kmh E 11.4 mph18.3 kmh 29.99 in1015.6 mb 0.00 in0.0 mm 0.00 in/hr0.0 mm/hr 0.00 in0.0 mm
11:29 PM 54.9°F12.7°C 29.0°F-1.7°C 39% 5.8 mph ESE9.3 kmh ESE 12.1 mph19.5 kmh 29.99 in1015.6 mb 0.00 in0.0 mm 0.00 in/hr0.0 mm/hr 0.00 in0.0 mm
11:40 PM 54.1°F12.3°C 28.4°F-2.0°C 39% 7.1 mph E11.4 kmh E 14.5 mph23.3 kmh 29.99 in1015.6 mb 0.00 in0.0 mm 0.00 in/hr0.0 mm/hr 0.00 in0.0 mm
11:51 PM 54.0°F12.2°C 28.2°F-2.1°C 39% 7.6 mph E12.2 kmh E 13.6 mph21.9 kmh 29.98 in1015.2 mb 0.00 in0.0 mm 0.00 in/hr0.0 mm/hr 0.00 in0.0 mm